Time;durP1;ratioP1;P1;durP2;ratioP2;P2;SDS_P1;SDS_P2;PMS_P1;PMS_P2;Temp;Humidity;BMP_temperature;BMP_pressure;BME280_temperature;BME280_humidity;BME280_pressure;Samples;Min_cycle;Max_cycle;Signal;HPM_P1;HPM_P2
2024/01/28 06:00:21;;;;;;;20.15;11.82;;;0.10;89.10;;;;;;4978762;23;20104;-79
2024/01/28 06:02:23;;;;;;;20.77;12.10;;;0.20;88.30;;;;;;4069354;29;20048;-78
2024/01/28 06:04:24;;;;;;;21.08;10.98;;;0.20;89.30;;;;;;4067125;29;20116;-79
2024/01/28 06:06:26;;;;;;;19.73;11.05;;;0.30;88.60;;;;;;4074197;29;20056;-80
2024/01/28 06:08:29;;;;;;;21.70;11.05;;;0.30;88.80;;;;;;4072050;29;20056;-82
2024/01/28 06:10:31;;;;;;;17.33;10.90;;;0.30;87.50;;;;;;4071217;29;20486;-79
2024/01/28 06:12:33;;;;;;;20.73;10.93;;;0.30;87.00;;;;;;4071794;29;20054;-79
2024/01/28 06:14:35;;;;;;;19.67;11.30;;;0.30;86.60;;;;;;4071695;29;20104;-78
2024/01/28 06:16:38;;;;;;;17.08;10.80;;;0.20;86.30;;;;;;4071040;29;20052;-78
2024/01/28 06:18:43;;;;;;;20.70;11.48;;;0.20;86.20;;;;;;4071816;29;20079;-78
2024/01/28 06:20:45;;;;;;;19.48;10.75;;;0.20;86.00;;;;;;4063731;29;20075;-81
2024/01/28 06:22:47;;;;;;;17.10;10.70;;;0.10;86.10;;;;;;4058834;29;20048;-78
2024/01/28 06:24:49;;;;;;;19.80;10.57;;;0.20;86.30;;;;;;4055459;29;20056;-79
2024/01/28 06:26:50;;;;;;;21.23;11.20;;;0.20;86.10;;;;;;4080667;29;20056;-80
2024/01/28 06:28:52;;;;;;;19.35;10.80;;;0.20;85.90;;;;;;4071412;29;20062;-78
2024/01/28 06:30:54;;;;;;;20.85;10.80;;;0.10;85.60;;;;;;4073670;29;20386;-80
2024/01/28 06:32:57;;;;;;;19.30;10.30;;;0.00;85.50;;;;;;4074120;29;20051;-79
2024/01/28 06:34:59;;;;;;;17.02;9.90;;;0.10;85.90;;;;;;4069380;29;20060;-79
2024/01/28 06:37:00;;;;;;;16.70;9.90;;;0.10;86.00;;;;;;4070255;29;20108;-79
2024/01/28 06:39:02;;;;;;;18.17;10.30;;;0.10;85.90;;;;;;4071278;29;20044;-79
2024/01/28 06:41:04;;;;;;;23.77;10.57;;;0.10;85.90;;;;;;4071213;29;20052;-80
2024/01/28 06:43:06;;;;;;;19.60;11.13;;;0.10;85.90;;;;;;4067703;29;20063;-79
2024/01/28 06:45:09;;;;;;;19.90;10.65;;;0.20;86.20;;;;;;4060794;29;20063;-78
2024/01/28 06:47:10;;;;;;;18.33;10.65;;;0.10;86.50;;;;;;4086369;29;20052;-80
2024/01/28 06:49:13;;;;;;;17.67;10.90;;;0.10;86.10;;;;;;4086222;29;20058;-80
2024/01/28 06:51:15;;;;;;;22.15;10.52;;;0.10;86.70;;;;;;4084963;29;20051;-79
2024/01/28 06:53:17;;;;;;;21.58;11.27;;;0.10;86.20;;;;;;4086418;29;20127;-78
2024/01/28 06:55:18;;;;;;;16.90;10.40;;;0.10;86.30;;;;;;4086222;29;20099;-80
2024/01/28 06:57:20;;;;;;;23.63;10.95;;;0.00;85.80;;;;;;4086449;29;20043;-75
2024/01/28 06:59:23;;;;;;;43.55;21.52;;;0.00;85.60;;;;;;4086793;29;20069;-80
2024/01/28 07:01:24;;;;;;;35.75;19.83;;;0.00;85.70;;;;;;4094563;28;20070;-77
2024/01/28 07:03:25;;;;;;;23.80;12.60;;;0.00;86.10;;;;;;4100810;28;20054;-78
2024/01/28 07:05:29;;;;;;;18.00;10.70;;;0.00;85.80;;;;;;4101449;28;20055;-80
2024/01/28 07:07:31;;;;;;;19.50;11.15;;;0.10;85.60;;;;;;4101782;29;20051;-80
2024/01/28 07:09:33;;;;;;;36.45;18.20;;;0.00;85.30;;;;;;4102845;28;20051;-79
2024/01/28 07:11:35;;;;;;;23.30;13.35;;;-0.10;86.10;;;;;;4112363;28;20109;-77
2024/01/28 07:13:37;;;;;;;19.63;11.40;;;0.00;86.10;;;;;;4091617;28;20053;-78
2024/01/28 07:15:39;;;;;;;20.50;11.73;;;-0.10;86.30;;;;;;4096776;28;20046;-78
2024/01/28 07:17:40;;;;;;;19.33;11.85;;;0.00;86.30;;;;;;4096645;28;20079;-81
2024/01/28 07:19:42;;;;;;;20.73;12.32;;;0.00;86.00;;;;;;4094751;28;20445;-81
2024/01/28 07:21:47;;;;;;;19.65;11.48;;;0.10;86.00;;;;;;4102362;29;20066;-78
2024/01/28 07:23:49;;;;;;;22.02;11.88;;;0.10;86.10;;;;;;4099078;28;20690;-80
2024/01/28 07:25:51;;;;;;;17.30;11.10;;;0.10;86.80;;;;;;4099257;28;20548;-78
2024/01/28 07:27:53;;;;;;;18.55;12.23;;;0.20;88.60;;;;;;4096481;28;20487;-78
2024/01/28 07:29:55;;;;;;;19.25;11.85;;;0.10;85.80;;;;;;4094267;29;20090;-78
2024/01/28 07:31:56;;;;;;;20.52;12.07;;;-0.10;86.90;;;;;;4098384;28;20106;-81
2024/01/28 07:33:58;;;;;;;19.60;10.80;;;-0.10;86.70;;;;;;4102387;29;20043;-79
2024/01/28 07:35:59;;;;;;;20.42;10.73;;;-0.10;85.30;;;;;;4098880;28;20047;-79
2024/01/28 07:38:03;;;;;;;21.02;11.77;;;-0.20;84.50;;;;;;4086447;28;20102;-78
2024/01/28 07:40:06;;;;;;;18.42;11.32;;;-0.20;86.80;;;;;;4094574;28;20050;-77
2024/01/28 07:42:07;;;;;;;23.98;12.50;;;-0.20;87.20;;;;;;4089196;28;20062;-79
2024/01/28 07:44:09;;;;;;;19.73;11.25;;;-0.10;87.20;;;;;;4091409;28;20055;-78
2024/01/28 07:46:11;;;;;;;18.05;10.85;;;-0.10;86.80;;;;;;4091888;28;20063;-79
2024/01/28 07:48:13;;;;;;;18.23;10.98;;;0.00;86.40;;;;;;4092137;28;20099;-80
2024/01/28 07:50:15;;;;;;;19.70;11.13;;;0.10;86.20;;;;;;4097363;28;20078;-79
2024/01/28 07:52:17;;;;;;;19.08;11.07;;;0.10;86.00;;;;;;4101009;29;20418;-80
2024/01/28 07:54:20;;;;;;;18.42;11.38;;;0.10;85.90;;;;;;4095544;28;20048;-78
2024/01/28 07:56:24;;;;;;;20.98;11.38;;;0.20;85.60;;;;;;4095785;29;20191;-78
2024/01/28 07:58:25;;;;;;;20.15;11.50;;;0.20;85.30;;;;;;4100802;28;20055;-80
2024/01/28 08:00:28;;;;;;;20.70;11.43;;;0.20;85.30;;;;;;4100694;29;20047;-80
2024/01/28 08:02:29;;;;;;;19.70;11.73;;;0.20;85.30;;;;;;4098120;28;20051;-80
2024/01/28 08:04:30;;;;;;;20.42;11.73;;;0.20;85.30;;;;;;4096691;28;20129;-80
2024/01/28 08:06:32;;;;;;;20.60;11.20;;;0.30;85.40;;;;;;4099173;28;20472;-80
2024/01/28 08:08:34;;;;;;;20.98;11.80;;;0.30;85.40;;;;;;4100587;29;20437;-78
2024/01/28 08:10:37;;;;;;;24.25;12.55;;;0.30;85.30;;;;;;4099393;29;20047;-76
2024/01/28 08:12:39;;;;;;;19.02;11.27;;;0.40;85.60;;;;;;4098887;28;20051;-79
2024/01/28 08:14:41;;;;;;;20.02;12.70;;;0.40;85.40;;;;;;4098115;28;20551;-78
2024/01/28 08:16:43;;;;;;;22.42;12.07;;;0.40;85.60;;;;;;4085648;29;20058;-78
2024/01/28 08:18:45;;;;;;;21.85;12.40;;;0.40;85.90;;;;;;4099415;29;20047;-78
2024/01/28 08:20:47;;;;;;;22.50;12.85;;;0.40;85.60;;;;;;4096651;28;20074;-75
2024/01/28 08:22:50;;;;;;;22.70;12.90;;;0.40;86.00;;;;;;4099731;28;20071;-78
2024/01/28 08:24:52;;;;;;;21.35;13.25;;;0.40;85.80;;;;;;4101655;28;20597;-79
2024/01/28 08:26:55;;;;;;;23.15;14.00;;;0.30;86.10;;;;;;4100671;29;20110;-77
2024/01/28 08:28:57;;;;;;;23.77;14.02;;;0.30;86.90;;;;;;4092094;29;20127;-79
2024/01/28 08:30:59;;;;;;;21.85;12.25;;;0.30;87.10;;;;;;4098063;29;20094;-76
2024/01/28 08:33:00;;;;;;;22.65;12.65;;;0.40;87.00;;;;;;4098549;28;20087;-78
2024/01/28 08:35:03;;;;;;;20.15;12.48;;;0.50;87.00;;;;;;4099014;28;20044;-77
2024/01/28 08:37:05;;;;;;;21.52;12.50;;;0.50;86.70;;;;;;4098793;28;20500;-79
2024/01/28 08:39:09;;;;;;;19.48;12.23;;;0.60;86.80;;;;;;4092952;28;20047;-80
2024/01/28 08:41:11;;;;;;;20.80;12.35;;;0.60;86.60;;;;;;4081669;29;20048;-78
2024/01/28 08:43:14;;;;;;;20.98;12.25;;;0.70;86.50;;;;;;4098705;29;20055;-79
2024/01/28 08:45:16;;;;;;;22.05;13.05;;;0.70;86.20;;;;;;4098178;28;20054;-78
2024/01/28 08:47:18;;;;;;;23.10;13.63;;;0.70;86.50;;;;;;4097240;28;20051;-81
2024/01/28 08:49:21;;;;;;;20.88;13.20;;;0.70;87.20;;;;;;4098765;28;20508;-79
2024/01/28 08:51:23;;;;;;;22.58;12.55;;;0.80;87.20;;;;;;4093983;29;20079;-80
2024/01/28 08:53:25;;;;;;;23.50;13.68;;;0.90;86.90;;;;;;4098996;28;20440;-81
2024/01/28 08:55:26;;;;;;;21.77;13.85;;;0.90;87.00;;;;;;4090388;28;20114;-78
2024/01/28 08:57:28;;;;;;;23.77;13.80;;;0.90;86.50;;;;;;4099046;28;20122;-78
2024/01/28 08:59:32;;;;;;;22.10;13.25;;;1.00;87.40;;;;;;4098892;29;20543;-77
2024/01/28 09:01:35;;;;;;;22.13;13.32;;;1.00;87.20;;;;;;4098192;28;20102;-76
2024/01/28 09:03:36;;;;;;;22.52;13.55;;;1.10;87.30;;;;;;4092889;28;20472;-79
2024/01/28 09:05:38;;;;;;;20.73;12.60;;;1.10;87.60;;;;;;4098475;28;20048;-78
2024/01/28 09:07:41;;;;;;;21.00;12.43;;;1.20;87.80;;;;;;4099411;28;20051;-78
2024/01/28 09:09:43;;;;;;;24.55;13.80;;;1.20;88.10;;;;;;4098578;28;20074;-79
2024/01/28 09:11:49;;;;;;;22.88;13.77;;;1.20;88.90;;;;;;4099428;28;20440;-79
2024/01/28 09:13:52;;;;;;;23.42;14.43;;;1.20;89.30;;;;;;4101527;29;20054;-81
2024/01/28 09:15:55;;;;;;;22.55;14.00;;;1.30;88.80;;;;;;4093461;28;20497;-78
2024/01/28 09:17:57;;;;;;;20.85;13.32;;;1.30;88.30;;;;;;4096535;28;20130;-76
2024/01/28 09:19:59;;;;;;;22.33;13.40;;;1.40;88.50;;;;;;4092197;28;20464;-79
2024/01/28 09:22:00;;;;;;;21.70;13.23;;;1.40;88.30;;;;;;4096269;29;20481;-77
2024/01/28 09:24:02;;;;;;;22.48;13.40;;;1.50;88.30;;;;;;4090867;29;20058;-79
2024/01/28 09:26:05;;;;;;;23.40;13.85;;;1.50;88.10;;;;;;4098750;28;20051;-76
2024/01/28 09:28:08;;;;;;;21.38;13.00;;;1.60;88.70;;;;;;4098586;28;20047;-77
2024/01/28 09:30:12;;;;;;;19.90;12.13;;;1.60;89.90;;;;;;4094767;28;20129;-76
2024/01/28 09:32:17;;;;;;;19.42;12.55;;;1.60;90.20;;;;;;4101439;28;20063;-78
2024/01/28 09:34:19;;;;;;;21.08;13.60;;;1.60;90.70;;;;;;4094331;28;20138;-79
2024/01/28 09:36:21;;;;;;;23.42;13.85;;;1.70;90.80;;;;;;4097529;28;20047;-77
2024/01/28 09:38:23;;;;;;;23.08;14.02;;;1.70;90.40;;;;;;4093914;28;20051;-79
2024/01/28 09:40:25;;;;;;;21.98;12.68;;;1.80;89.60;;;;;;4098614;28;20055;-77
2024/01/28 09:42:37;;;;;;;23.25;13.25;;;1.90;89.50;;;;;;4099238;29;20055;-76
2024/01/28 09:44:38;;;;;;;22.50;12.82;;;1.90;90.10;;;;;;4096168;28;20081;-78
2024/01/28 09:46:41;;;;;;;17.50;11.68;;;2.00;90.20;;;;;;4098822;28;20054;-79
2024/01/28 09:48:47;;;;;;;18.00;11.10;;;2.10;89.50;;;;;;4096515;28;20542;-78
2024/01/28 09:50:49;;;;;;;17.25;10.88;;;2.10;89.50;;;;;;4097115;28;20047;-78
2024/01/28 09:52:51;;;;;;;21.92;11.57;;;2.20;88.40;;;;;;4098705;29;20051;-78
2024/01/28 09:54:55;;;;;;;19.20;11.55;;;2.30;88.20;;;;;;4098051;29;20102;-77
2024/01/28 09:56:57;;;;;;;17.08;10.43;;;2.30;88.70;;;;;;4095466;28;20075;-79
2024/01/28 09:59:00;;;;;;;18.95;11.80;;;2.40;88.70;;;;;;4098169;29;20409;-79
2024/01/28 10:01:02;;;;;;;21.13;11.13;;;2.50;89.40;;;;;;4097857;28;20054;-78
2024/01/28 10:03:05;;;;;;;19.27;11.43;;;2.40;89.70;;;;;;4092778;28;20512;-77
2024/01/28 10:05:10;;;;;;;21.92;12.65;;;2.50;89.70;;;;;;4095346;28;20051;-80
2024/01/28 10:07:15;;;;;;;18.87;11.77;;;2.50;90.00;;;;;;4098490;28;20046;-79
2024/01/28 10:09:16;;;;;;;19.27;12.60;;;2.50;90.20;;;;;;4098177;28;20051;-77
2024/01/28 10:11:20;;;;;;;20.35;12.57;;;2.50;90.50;;;;;;4098903;29;20054;-79
2024/01/28 10:13:22;;;;;;;21.30;12.50;;;2.50;90.70;;;;;;4099178;29;20051;-78
2024/01/28 10:15:27;;;;;;;18.05;11.77;;;2.50;90.80;;;;;;4099029;28;20413;-79
2024/01/28 10:17:29;;;;;;;20.25;12.13;;;2.50;90.70;;;;;;4088773;28;20138;-81
2024/01/28 10:19:31;;;;;;;19.08;12.85;;;2.60;90.70;;;;;;4054966;29;20055;-78
2024/01/28 10:21:33;;;;;;;20.02;13.00;;;2.70;90.70;;;;;;4098123;28;20070;-78
2024/01/28 10:23:37;;;;;;;22.35;13.32;;;2.70;91.00;;;;;;4097922;28;20692;-79
2024/01/28 10:25:40;;;;;;;20.50;13.07;;;2.70;90.60;;;;;;4098548;29;20066;-79
2024/01/28 10:27:41;;;;;;;17.35;11.88;;;2.80;90.70;;;;;;4097035;29;20464;-77
2024/01/28 10:29:44;;;;;;;20.13;12.32;;;2.80;90.60;;;;;;4097883;28;20058;-80
2024/01/28 10:31:45;;;;;;;18.15;12.18;;;2.90;90.60;;;;;;4096178;29;20393;-79
2024/01/28 10:33:47;;;;;;;19.08;11.52;;;3.00;90.40;;;;;;4094022;29;20049;-80
2024/01/28 10:35:49;;;;;;;18.08;10.93;;;3.10;90.00;;;;;;4097545;28;20123;-77
2024/01/28 10:37:54;;;;;;;17.60;11.15;;;3.10;90.20;;;;;;4096726;28;20048;-78
2024/01/28 10:39:59;;;;;;;20.15;12.43;;;3.20;89.70;;;;;;4097438;28;20055;-78
2024/01/28 10:42:03;;;;;;;17.65;10.68;;;3.30;89.70;;;;;;4097783;28;20147;-78
2024/01/28 10:44:08;;;;;;;18.20;11.52;;;3.30;89.30;;;;;;4094662;28;20054;-77
2024/01/28 10:46:13;;;;;;;17.87;11.03;;;3.40;88.90;;;;;;4068195;29;20146;-79
2024/01/28 10:48:18;;;;;;;17.83;11.88;;;3.50;88.70;;;;;;4090149;28;20351;-82
2024/01/28 10:50:21;;;;;;;15.15;10.48;;;3.50;88.60;;;;;;4106623;28;20054;-83
2024/01/28 10:52:24;;;;;;;19.02;11.75;;;3.60;88.30;;;;;;4100307;29;20086;-83
2024/01/28 10:54:29;;;;;;;16.02;11.20;;;3.60;88.30;;;;;;4093730;28;20130;-78
2024/01/28 10:56:32;;;;;;;18.27;10.00;;;3.70;88.50;;;;;;4098061;29;20110;-78
2024/01/28 10:58:33;;;;;;;17.27;10.57;;;3.80;87.90;;;;;;4098059;28;20043;-80
2024/01/28 11:00:36;;;;;;;18.50;11.48;;;3.80;87.50;;;;;;4093575;28;20058;-77
2024/01/28 11:02:40;;;;;;;18.25;11.02;;;3.80;88.00;;;;;;4099311;29;20058;-76
2024/01/28 11:04:42;;;;;;;16.85;10.85;;;3.90;87.80;;;;;;4097644;28;20102;-78
2024/01/28 11:06:46;;;;;;;18.58;11.80;;;4.00;87.70;;;;;;4097872;29;20052;-79
2024/01/28 11:08:49;;;;;;;19.13;12.50;;;4.00;87.60;;;;;;4098415;29;20050;-80
2024/01/28 11:10:53;;;;;;;16.73;11.55;;;4.10;87.60;;;;;;4093996;29;20623;-80
2024/01/28 11:12:56;;;;;;;20.25;12.60;;;4.10;87.80;;;;;;4098026;29;20058;-81
2024/01/28 11:14:59;;;;;;;19.73;12.25;;;4.20;88.00;;;;;;4098319;28;20078;-80
2024/01/28 11:17:01;;;;;;;19.25;11.70;;;4.20;87.90;;;;;;4098581;29;20162;-80
2024/01/28 11:19:06;;;;;;;16.67;11.13;;;4.30;87.90;;;;;;4097706;29;20110;-79
2024/01/28 11:21:11;;;;;;;16.60;11.05;;;4.40;87.80;;;;;;4098165;29;20464;-77
2024/01/28 11:23:17;;;;;;;17.77;11.00;;;4.40;88.00;;;;;;4094560;28;20717;-79
2024/01/28 11:25:20;;;;;;;17.83;11.73;;;4.40;87.60;;;;;;4094420;29;20091;-80
2024/01/28 11:27:29;;;;;;;18.55;11.13;;;4.50;87.60;;;;;;4097099;28;20404;-80
2024/01/28 11:29:33;;;;;;;16.73;10.63;;;4.50;87.10;;;;;;4087097;28;20053;-80
2024/01/28 11:31:38;;;;;;;15.90;10.65;;;4.60;87.50;;;;;;4079795;29;20171;-76
2024/01/28 11:33:46;;;;;;;17.15;11.18;;;4.60;86.80;;;;;;4090241;29;20051;-77
2024/01/28 11:35:48;;;;;;;17.70;10.98;;;4.70;87.60;;;;;;4097338;29;20055;-77
2024/01/28 11:37:55;;;;;;;15.88;9.93;;;4.70;86.20;;;;;;4097377;29;20061;-79
2024/01/28 11:40:05;;;;;;;14.75;9.70;;;4.80;85.50;;;;;;4092195;28;20047;-77
2024/01/28 11:42:07;;;;;;;13.30;9.38;;;4.90;85.00;;;;;;4097276;28;20078;-77
2024/01/28 11:44:11;;;;;;;16.60;9.35;;;4.90;84.20;;;;;;4095236;29;20052;-78
2024/01/28 11:46:13;;;;;;;14.77;8.75;;;5.00;83.60;;;;;;4092327;28;20043;-76
2024/01/28 11:48:15;;;;;;;14.07;9.55;;;5.10;83.10;;;;;;4088369;28;20105;-77
2024/01/28 11:50:18;;;;;;;18.55;9.90;;;5.10;83.10;;;;;;4095502;28;20102;-77
2024/01/28 11:52:20;;;;;;;13.80;9.35;;;5.20;83.20;;;;;;4096038;28;20117;-76
2024/01/28 11:54:22;;;;;;;13.45;8.75;;;5.30;82.90;;;;;;4096857;29;20110;-75
2024/01/28 11:56:24;;;;;;;17.30;9.35;;;5.30;82.60;;;;;;4094455;28;20102;-77
2024/01/28 11:58:26;;;;;;;13.82;8.77;;;5.40;82.30;;;;;;4096319;29;20117;-78
2024/01/28 12:00:29;;;;;;;13.30;8.38;;;5.50;82.80;;;;;;4096588;28;20079;-77
2024/01/28 12:02:31;;;;;;;15.63;9.35;;;5.60;82.30;;;;;;4090385;29;20047;-78
2024/01/28 12:04:34;;;;;;;15.95;9.32;;;5.70;82.00;;;;;;4096623;29;20054;-77
2024/01/28 12:06:37;;;;;;;13.90;9.40;;;5.80;81.70;;;;;;4096654;29;20075;-75
2024/01/28 12:08:41;;;;;;;16.08;9.27;;;5.90;81.60;;;;;;4096081;28;20059;-78
2024/01/28 12:10:43;;;;;;;13.32;8.52;;;6.00;81.10;;;;;;4092652;28;20134;-80
2024/01/28 12:12:58;;;;;;;13.40;8.20;;;6.10;80.80;;;;;;4216303;27;20538;-77
2024/01/28 12:15:00;;;;;;;11.98;8.27;;;6.20;79.60;;;;;;4216678;28;20052;-78
2024/01/28 12:17:02;;;;;;;14.02;8.93;;;6.40;79.20;;;;;;4222011;28;20039;-76
2024/01/28 12:19:04;;;;;;;13.85;9.20;;;6.50;79.40;;;;;;4216922;28;20035;-78
2024/01/28 12:21:16;;;;;;;14.02;8.93;;;6.60;79.30;;;;;;4216823;28;20051;-78
2024/01/28 12:23:19;;;;;;;16.98;10.63;;;6.70;79.50;;;;;;4220415;28;20567;-78
2024/01/28 12:25:24;;;;;;;17.20;10.98;;;6.80;78.90;;;;;;4216814;28;22066;-79
2024/01/28 12:27:25;;;;;;;18.17;10.88;;;7.00;78.70;;;;;;4215204;28;20044;-78
2024/01/28 12:29:28;;;;;;;13.85;9.50;;;7.10;78.70;;;;;;4218621;28;20051;-78
2024/01/28 12:31:31;;;;;;;13.35;9.38;;;7.20;78.40;;;;;;4216568;28;20293;-81
2024/01/28 12:33:32;;;;;;;12.30;7.90;;;7.30;77.90;;;;;;4219449;28;20139;-80
2024/01/28 12:35:34;;;;;;;13.38;8.15;;;7.50;77.30;;;;;;4214780;28;20075;-80
2024/01/28 12:37:37;;;;;;;13.38;8.13;;;7.60;76.30;;;;;;4214799;28;20044;-79
2024/01/28 12:39:39;;;;;;;13.18;8.05;;;7.70;75.50;;;;;;4217497;28;20044;-78
2024/01/28 12:41:41;;;;;;;10.93;7.10;;;8.00;75.20;;;;;;4214546;28;20093;-81
2024/01/28 12:43:47;;;;;;;12.02;7.40;;;8.10;74.60;;;;;;4212446;28;20047;-79
2024/01/28 12:45:51;;;;;;;11.85;7.40;;;8.30;74.40;;;;;;4214724;28;20055;-79
2024/01/28 12:47:53;;;;;;;10.68;7.65;;;8.40;73.60;;;;;;4221709;28;20097;-81
2024/01/28 12:49:54;;;;;;;10.68;6.35;;;8.70;72.30;;;;;;4212091;28;20145;-77
2024/01/28 12:51:56;;;;;;;10.73;6.22;;;9.00;69.60;;;;;;4218301;28;20819;-77
2024/01/28 12:53:59;;;;;;;7.60;5.22;;;9.30;63.20;;;;;;4210337;28;20460;-81
2024/01/28 12:56:00;;;;;;;8.88;5.30;;;9.60;64.90;;;;;;4215291;28;20135;-82
2024/01/28 12:58:03;;;;;;;8.80;4.95;;;9.70;63.70;;;;;;4223197;28;20439;-77
2024/01/28 13:00:06;;;;;;;8.00;4.50;;;10.00;62.10;;;;;;4217387;28;20666;-74
2024/01/28 13:02:09;;;;;;;8.57;4.93;;;10.30;62.60;;;;;;4224012;27;20143;-76
2024/01/28 13:04:13;;;;;;;8.32;4.80;;;10.60;60.80;;;;;;4221374;28;20443;-78
2024/01/28 13:06:14;;;;;;;9.02;4.63;;;11.00;56.30;;;;;;4220383;28;20623;-80
2024/01/28 13:08:16;;;;;;;7.50;4.68;;;11.40;55.00;;;;;;4217475;28;20055;-79
2024/01/28 13:10:17;;;;;;;9.55;4.50;;;11.80;55.30;;;;;;4217149;28;20085;-79
2024/01/28 13:12:20;;;;;;;7.05;4.72;;;12.20;54.50;;;;;;4212897;28;20104;-77
2024/01/28 13:14:21;;;;;;;18.15;9.00;;;12.90;52.40;;;;;;4216688;28;20109;-79
2024/01/28 13:16:23;;;;;;;17.23;9.02;;;15.10;48.30;;;;;;4221171;28;20074;-78
2024/01/28 13:18:26;;;;;;;11.20;5.97;;;19.30;41.00;;;;;;4213925;28;20090;-78
2024/01/28 13:20:28;;;;;;;6.82;4.43;;;21.50;33.70;;;;;;4220014;28;20047;-79
2024/01/28 13:22:30;;;;;;;6.88;4.40;;;23.60;30.30;;;;;;4209379;28;20523;-78
2024/01/28 13:24:32;;;;;;;7.00;4.35;;;25.10;28.60;;;;;;4209304;28;20047;-78
2024/01/28 13:26:34;;;;;;;5.80;3.88;;;26.10;26.90;;;;;;4202568;28;20045;-76
2024/01/28 13:28:36;;;;;;;7.60;3.97;;;28.20;25.00;;;;;;4200248;28;20457;-78
2024/01/28 13:30:37;;;;;;;6.20;3.60;;;29.40;22.90;;;;;;4209600;28;20133;-80
2024/01/28 13:32:39;;;;;;;6.13;4.10;;;30.50;22.30;;;;;;4204730;28;20052;-78
2024/01/28 13:34:42;;;;;;;6.95;3.90;;;31.80;21.30;;;;;;4207467;28;20055;-81
2024/01/28 13:36:44;;;;;;;5.50;3.63;;;32.80;20.20;;;;;;4202176;28;22977;-80
2024/01/28 13:38:47;;;;;;;6.57;3.63;;;33.70;19.70;;;;;;4209220;28;20039;-79
2024/01/28 13:40:48;;;;;;;5.72;3.58;;;34.30;18.90;;;;;;4204523;28;20047;-80
2024/01/28 13:42:51;;;;;;;5.47;3.40;;;34.60;18.60;;;;;;4197213;28;20193;-77
2024/01/28 13:44:52;;;;;;;5.30;3.22;;;34.40;18.10;;;;;;4202705;28;20049;-78
2024/01/28 13:46:57;;;;;;;4.45;3.03;;;34.70;17.40;;;;;;4203626;28;20542;-80
2024/01/28 13:48:59;;;;;;;4.32;3.15;;;35.50;17.20;;;;;;4207780;28;20428;-76
2024/01/28 13:51:03;;;;;;;6.15;3.85;;;36.20;16.30;;;;;;4206548;28;20040;-78
2024/01/28 13:53:08;;;;;;;6.13;3.60;;;36.10;16.50;;;;;;4206960;28;20132;-76
2024/01/28 13:55:10;;;;;;;6.10;3.50;;;37.00;16.70;;;;;;4204057;28;20093;-80
2024/01/28 13:57:12;;;;;;;6.53;3.80;;;36.30;16.30;;;;;;4204954;28;20048;-76
2024/01/28 13:59:14;;;;;;;5.60;3.55;;;36.30;17.10;;;;;;4204508;28;20519;-75
2024/01/28 14:01:16;;;;;;;4.82;3.60;;;37.60;16.30;;;;;;4201116;28;20044;-76
2024/01/28 14:03:18;;;;;;;5.45;3.80;;;38.80;15.80;;;;;;4209519;28;20121;-77
2024/01/28 14:05:20;;;;;;;5.50;4.20;;;39.70;15.20;;;;;;4198577;28;20048;-82
2024/01/28 14:07:23;;;;;;;5.03;4.00;;;40.00;14.70;;;;;;4204059;28;20091;-77
2024/01/28 14:09:25;;;;;;;12.75;8.90;;;40.80;14.50;;;;;;4205808;28;20048;-79
2024/01/28 14:11:27;;;;;;;8.35;5.70;;;40.80;13.90;;;;;;4204986;28;20114;-79
2024/01/28 14:13:28;;;;;;;7.88;5.25;;;41.30;13.90;;;;;;4206644;28;20044;-78
2024/01/28 14:15:30;;;;;;;6.90;4.32;;;41.40;14.00;;;;;;4197070;28;20048;-78
2024/01/28 14:17:33;;;;;;;6.30;3.90;;;41.70;13.30;;;;;;4201293;28;20051;-76
2024/01/28 14:19:37;;;;;;;5.00;3.80;;;41.90;13.10;;;;;;4207600;28;20040;-77
2024/01/28 14:21:39;;;;;;;5.88;3.70;;;42.20;12.90;;;;;;4208909;28;20051;-79
2024/01/28 14:23:41;;;;;;;5.05;3.42;;;42.10;12.70;;;;;;4207255;28;20074;-76
2024/01/28 14:25:43;;;;;;;6.85;3.88;;;41.50;12.40;;;;;;4205774;28;20098;-75
2024/01/28 14:27:45;;;;;;;5.45;4.00;;;42.00;12.80;;;;;;4204971;28;20389;-77
2024/01/28 14:29:47;;;;;;;6.18;4.35;;;41.80;12.50;;;;;;4209008;28;20048;-77
2024/01/28 14:31:49;;;;;;;5.93;3.95;;;41.80;12.80;;;;;;4211077;28;20044;-78
2024/01/28 14:33:52;;;;;;;7.10;4.13;;;41.10;12.70;;;;;;4210251;28;20044;-78
2024/01/28 14:35:53;;;;;;;7.93;5.28;;;41.50;12.80;;;;;;4196328;28;20040;-78
2024/01/28 14:37:55;;;;;;;6.20;5.43;;;41.50;12.50;;;;;;4197966;28;20485;-80
2024/01/28 14:39:58;;;;;;;6.93;5.60;;;41.30;13.00;;;;;;4197977;28;20060;-78
2024/01/28 14:42:02;;;;;;;6.45;5.85;;;41.40;12.70;;;;;;4196205;28;20045;-78
2024/01/28 14:44:04;;;;;;;7.60;6.90;;;40.80;13.00;;;;;;4206625;28;20055;-79
2024/01/28 14:46:06;;;;;;;9.50;8.70;;;41.00;13.20;;;;;;4205988;28;20094;-81
2024/01/28 14:48:08;;;;;;;9.35;8.55;;;41.20;12.90;;;;;;4204896;28;20449;-80
2024/01/28 14:50:11;;;;;;;9.65;8.85;;;40.80;12.70;;;;;;4203836;28;20098;-80
2024/01/28 14:52:13;;;;;;;10.15;9.35;;;40.60;13.00;;;;;;4202718;28;20044;-81
2024/01/28 14:54:17;;;;;;;10.48;9.68;;;40.50;12.80;;;;;;4210672;28;20098;-77
2024/01/28 14:56:20;;;;;;;9.85;9.05;;;40.50;12.70;;;;;;4205134;28;20472;-77
2024/01/28 14:58:22;;;;;;;8.43;7.63;;;40.50;13.00;;;;;;4203945;28;20102;-79
2024/01/28 15:00:23;;;;;;;11.70;10.82;;;40.20;13.00;;;;;;4210434;28;20121;-77
2024/01/28 15:02:28;;;;;;;12.25;11.35;;;40.00;13.10;;;;;;4203212;28;20060;-76
2024/01/28 15:04:30;;;;;;;11.15;10.25;;;39.70;13.00;;;;;;4209113;28;20135;-77
2024/01/28 15:06:31;;;;;;;22.42;21.10;;;39.10;13.40;;;;;;4203950;28;20044;-80
2024/01/28 15:08:33;;;;;;;6.30;5.57;;;38.60;13.50;;;;;;4197307;28;20597;-79
2024/01/28 15:10:35;;;;;;;6.78;5.82;;;38.00;14.30;;;;;;4203424;28;20052;-79
2024/01/28 15:12:38;;;;;;;6.28;5.13;;;37.50;14.20;;;;;;4205934;28;20071;-77
2024/01/28 15:14:40;;;;;;;5.90;5.22;;;37.00;14.40;;;;;;4196372;28;20113;-79
2024/01/28 15:16:42;;;;;;;6.28;5.68;;;36.00;14.60;;;;;;4209429;28;20044;-80
2024/01/28 15:18:44;;;;;;;5.90;4.82;;;35.40;14.60;;;;;;4203185;28;20052;-79
2024/01/28 15:20:46;;;;;;;6.55;4.90;;;34.90;14.70;;;;;;4208472;28;20109;-78
2024/01/28 15:22:47;;;;;;;6.28;5.38;;;34.20;14.70;;;;;;4208078;28;20101;-79
2024/01/28 15:24:49;;;;;;;7.15;4.78;;;33.60;15.50;;;;;;4203220;28;20052;-78
2024/01/28 15:26:51;;;;;;;8.50;6.15;;;33.40;15.40;;;;;;4206984;28;20063;-77
2024/01/28 15:28:54;;;;;;;5.18;4.63;;;32.90;15.70;;;;;;4208790;28;20048;-77
2024/01/28 15:30:55;;;;;;;6.38;4.97;;;32.60;16.20;;;;;;4209892;28;20059;-76
2024/01/28 15:32:58;;;;;;;6.10;4.93;;;32.70;16.50;;;;;;4202674;28;20114;-75
2024/01/28 15:34:58;;;;;;;5.63;4.70;;;32.90;16.50;;;;;;4201170;28;20049;-79
2024/01/28 15:37:00;;;;;;;7.03;4.47;;;32.60;16.50;;;;;;4210125;28;20136;-78
2024/01/28 15:39:02;;;;;;;6.32;4.50;;;31.80;16.80;;;;;;4210993;28;20051;-78
2024/01/28 15:41:05;;;;;;;6.95;4.35;;;30.60;17.50;;;;;;4211378;28;20047;-80
2024/01/28 15:43:07;;;;;;;7.05;4.45;;;29.30;18.40;;;;;;4209488;28;20475;-78
2024/01/28 15:45:10;;;;;;;8.50;4.68;;;28.10;19.10;;;;;;4211469;28;20138;-78
2024/01/28 15:47:11;;;;;;;9.40;5.78;;;27.50;19.80;;;;;;4210038;28;20101;-76
2024/01/28 15:49:13;;;;;;;8.00;4.72;;;26.60;20.40;;;;;;4203892;28;20600;-79
2024/01/28 15:51:15;;;;;;;7.38;4.30;;;25.60;21.20;;;;;;4195973;28;20052;-78
2024/01/28 15:53:17;;;;;;;16.10;8.73;;;25.10;22.00;;;;;;4208272;28;20052;-80
2024/01/28 15:55:19;;;;;;;9.15;5.47;;;24.30;22.60;;;;;;4207634;28;20056;-80
2024/01/28 15:57:20;;;;;;;9.45;5.90;;;23.00;23.80;;;;;;4210315;28;20560;-77
2024/01/28 15:59:21;;;;;;;9.68;5.57;;;21.80;25.30;;;;;;4212628;28;20086;-78
2024/01/28 16:01:25;;;;;;;8.98;5.20;;;20.80;26.50;;;;;;4203670;28;20044;-78
2024/01/28 16:03:27;;;;;;;7.10;4.53;;;20.00;27.80;;;;;;4211218;28;20051;-77
2024/01/28 16:05:29;;;;;;;8.20;4.90;;;19.20;28.80;;;;;;4205454;28;20816;-79
2024/01/28 16:07:30;;;;;;;8.63;4.60;;;18.40;29.60;;;;;;4201850;28;20089;-78
2024/01/28 16:09:32;;;;;;;6.85;4.82;;;18.00;30.20;;;;;;4207102;28;20048;-80
2024/01/28 16:11:34;;;;;;;8.20;5.18;;;17.50;30.90;;;;;;4198903;28;20485;-79
2024/01/28 16:13:36;;;;;;;8.20;5.40;;;17.10;31.90;;;;;;4200161;28;20084;-79
2024/01/28 16:15:38;;;;;;;8.55;5.90;;;16.70;33.00;;;;;;4205347;28;20081;-81
2024/01/28 16:17:42;;;;;;;9.10;5.97;;;16.30;33.90;;;;;;4196123;28;20456;-79
2024/01/28 16:19:44;;;;;;;8.13;5.18;;;15.90;34.50;;;;;;4202528;28;20048;-78
2024/01/28 16:21:46;;;;;;;8.55;5.07;;;15.50;35.50;;;;;;4211127;28;20443;-80
2024/01/28 16:23:48;;;;;;;8.20;4.55;;;15.20;36.10;;;;;;4196180;28;20442;-79
2024/01/28 16:25:51;;;;;;;7.22;4.35;;;14.80;36.60;;;;;;4200522;28;20658;-76
2024/01/28 16:27:52;;;;;;;8.63;5.22;;;14.50;37.50;;;;;;4202066;28;20052;-77
2024/01/28 16:29:54;;;;;;;8.85;5.32;;;14.20;38.30;;;;;;4207913;28;20044;-76
2024/01/28 16:31:57;;;;;;;8.75;5.20;;;14.00;39.10;;;;;;4195623;28;20437;-78